Time;durP1;ratioP1;P1;durP2;ratioP2;P2;SDS_P1;SDS_P2;PMS_P1;PMS_P2;Temp;Humidity;BMP_temperature;BMP_pressure;BME280_temperature;BME280_humidity;BME280_pressure;Samples;Min_cycle;Max_cycle;Signal;HPM_P1;HPM_P2
2023/03/21 00:01:40;;;;;;;1999.90;999.90;;;9.80;99.90;;;;;;5090872;28;20422;-66
2023/03/21 00:04:07;;;;;;;1999.90;999.90;;;9.90;99.90;;;;;;5090971;28;20406;-66
2023/03/21 00:06:36;;;;;;;1999.90;999.90;;;9.80;99.90;;;;;;5090476;28;20842;-67
2023/03/21 00:09:03;;;;;;;1999.90;999.90;;;9.80;99.90;;;;;;5089749;28;20453;-67
2023/03/21 00:11:30;;;;;;;1999.90;999.90;;;9.80;99.90;;;;;;5090588;28;20504;-67
2023/03/21 00:13:57;;;;;;;1999.90;999.90;;;9.70;99.90;;;;;;5090519;28;20433;-67
2023/03/21 00:16:25;;;;;;;1999.90;999.90;;;9.80;99.90;;;;;;5090723;28;20405;-67
2023/03/21 00:18:53;;;;;;;1999.90;999.90;;;9.90;99.90;;;;;;5090861;28;20513;-67
2023/03/21 00:21:27;;;;;;;1999.90;999.90;;;10.00;99.90;;;;;;5089599;28;20429;-66
2023/03/21 00:23:55;;;;;;;1999.90;999.90;;;10.10;99.90;;;;;;5090411;28;20418;-66
2023/03/21 00:26:22;;;;;;;1999.90;999.90;;;10.10;99.90;;;;;;5090351;28;20508;-66
2023/03/21 00:28:49;;;;;;;1999.90;999.90;;;10.00;99.90;;;;;;5090759;28;20437;-68
2023/03/21 00:31:16;;;;;;;1999.90;999.90;;;10.10;99.90;;;;;;5089559;28;20493;-64
2023/03/21 00:33:44;;;;;;;1999.90;999.90;;;10.00;99.90;;;;;;5090176;28;20429;-66
2023/03/21 00:36:12;;;;;;;1999.90;999.90;;;10.00;99.90;;;;;;5090387;28;21081;-66
2023/03/21 00:38:39;;;;;;;1999.90;999.90;;;9.90;99.90;;;;;;5090443;28;20436;-67
2023/03/21 00:41:08;;;;;;;1999.90;999.90;;;9.90;99.90;;;;;;5090183;28;21058;-66
2023/03/21 00:43:36;;;;;;;1999.90;999.90;;;10.00;99.90;;;;;;5089560;28;20426;-66
2023/03/21 00:46:03;;;;;;;1999.90;999.90;;;10.00;99.90;;;;;;5090361;28;20417;-66
2023/03/21 00:48:30;;;;;;;1999.90;999.90;;;9.90;99.90;;;;;;5090331;28;20402;-63
2023/03/21 00:50:59;;;;;;;1999.90;999.90;;;9.90;99.90;;;;;;5090208;28;20466;-61
2023/03/21 00:53:26;;;;;;;1999.90;999.90;;;9.90;99.90;;;;;;5089966;28;20414;-65
2023/03/21 00:55:52;;;;;;;1999.90;999.90;;;9.90;99.90;;;;;;5088923;28;20437;-64
2023/03/21 00:58:21;;;;;;;1999.90;999.90;;;9.90;99.90;;;;;;5090195;28;20418;-64
2023/03/21 01:00:49;;;;;;;1999.90;999.90;;;9.90;99.90;;;;;;5090184;28;20895;-64
2023/03/21 01:03:19;;;;;;;1999.90;999.90;;;9.80;99.90;;;;;;5089233;28;22369;-64
2023/03/21 01:06:06;;;;;;;1999.90;999.90;;;9.80;99.90;;;;;;5090032;28;20779;-63
2023/03/21 01:08:34;;;;;;;1999.90;999.90;;;9.70;99.90;;;;;;5089369;28;20469;-64
2023/03/21 01:11:03;;;;;;;1999.90;999.90;;;9.70;99.90;;;;;;5082229;28;20440;-64
2023/03/21 01:13:32;;;;;;;1999.90;999.90;;;9.70;99.90;;;;;;5089915;28;20414;-64
2023/03/21 01:15:59;;;;;;;1999.90;999.90;;;9.70;99.90;;;;;;5089962;28;20874;-64
2023/03/21 01:18:29;;;;;;;1999.90;999.90;;;9.70;99.90;;;;;;5091826;28;20406;-65
2023/03/21 01:20:57;;;;;;;1999.90;999.90;;;9.70;99.90;;;;;;5093229;28;20430;-63
2023/03/21 01:23:24;;;;;;;1999.90;999.90;;;9.70;99.90;;;;;;5093673;28;20414;-64
2023/03/21 01:25:53;;;;;;;1999.90;999.90;;;9.70;99.90;;;;;;5093881;28;20469;-64
2023/03/21 01:28:20;;;;;;;1999.90;999.90;;;9.70;99.90;;;;;;5093828;28;20409;-63
2023/03/21 01:30:49;;;;;;;1999.90;999.90;;;9.70;99.90;;;;;;5093758;28;20878;-63
2023/03/21 01:33:17;;;;;;;1999.90;999.90;;;9.70;99.90;;;;;;5092526;28;20430;-64
2023/03/21 01:35:45;;;;;;;1999.90;999.90;;;9.70;99.90;;;;;;5093595;28;20492;-65
2023/03/21 01:38:12;;;;;;;1999.90;999.90;;;9.70;99.90;;;;;;5093838;28;20414;-66
2023/03/21 01:40:40;;;;;;;1999.90;999.90;;;9.70;99.90;;;;;;5093652;28;20425;-66
2023/03/21 01:43:25;;;;;;;1999.90;999.90;;;9.80;99.90;;;;;;5092578;28;20437;-66
2023/03/21 01:46:25;;;;;;;1999.90;999.90;;;9.80;99.90;;;;;;5093496;28;20413;-66
2023/03/21 01:48:56;;;;;;;1999.90;999.90;;;9.70;99.90;;;;;;5093553;28;20417;-63
2023/03/21 01:51:24;;;;;;;1999.90;999.90;;;9.60;99.90;;;;;;5093558;28;20471;-64
2023/03/21 01:53:51;;;;;;;1999.90;999.90;;;9.60;99.90;;;;;;5093163;28;20414;-64
2023/03/21 01:56:22;;;;;;;1999.90;999.90;;;9.70;99.90;;;;;;5092314;28;20513;-62
2023/03/21 01:58:50;;;;;;;1999.90;999.90;;;9.70;99.90;;;;;;5093308;28;20471;-63
2023/03/21 02:01:21;;;;;;;1999.90;999.90;;;9.60;99.90;;;;;;5092976;28;20853;-63
2023/03/21 02:03:52;;;;;;;1999.90;999.90;;;9.60;99.90;;;;;;5093231;28;20417;-67
2023/03/21 02:06:32;;;;;;;1999.90;999.90;;;9.70;99.90;;;;;;5093220;28;20505;-64
2023/03/21 02:09:03;;;;;;;1999.90;999.90;;;9.80;99.90;;;;;;5092031;28;20430;-64
2023/03/21 02:11:32;;;;;;;1999.90;999.90;;;9.80;99.90;;;;;;5093047;28;20494;-64
2023/03/21 02:13:58;;;;;;;1999.90;999.90;;;9.90;99.90;;;;;;5092865;28;20417;-65
2023/03/21 02:16:34;;;;;;;1999.90;999.90;;;9.90;99.90;;;;;;5092741;28;20892;-65
2023/03/21 02:19:15;;;;;;;1999.90;999.90;;;9.90;99.90;;;;;;5092050;28;20414;-64
2023/03/21 02:22:06;;;;;;;1999.90;999.90;;;9.80;99.90;;;;;;5091499;28;20478;-64
2023/03/21 02:25:10;;;;;;;1999.90;999.90;;;9.70;99.90;;;;;;5092592;28;20471;-64
2023/03/21 02:27:44;;;;;;;1999.90;999.90;;;9.70;99.90;;;;;;5092732;28;20597;-64
2023/03/21 02:30:37;;;;;;;1999.90;999.90;;;9.70;99.90;;;;;;5092529;28;20467;-65
2023/03/21 02:33:22;;;;;;;1999.90;999.90;;;9.70;99.90;;;;;;5091646;28;20425;-61
2023/03/21 02:36:16;;;;;;;1999.90;999.90;;;9.70;99.90;;;;;;5092557;28;20482;-65
2023/03/21 02:38:49;;;;;;;1999.90;999.90;;;9.70;99.90;;;;;;5092774;28;20410;-64
2023/03/21 02:41:19;;;;;;;1999.90;999.90;;;9.70;99.90;;;;;;5092304;28;20906;-62
2023/03/21 02:43:53;;;;;;;1999.90;999.90;;;9.70;99.90;;;;;;5091385;28;20429;-64
2023/03/21 02:46:25;;;;;;;1999.90;999.90;;;9.80;99.90;;;;;;5092303;28;20406;-64
2023/03/21 02:48:55;;;;;;;1999.90;999.90;;;9.80;99.90;;;;;;5092311;28;20826;-64
2023/03/21 02:51:25;;;;;;;1999.90;999.90;;;9.80;99.90;;;;;;5092338;28;20451;-64
2023/03/21 02:53:58;;;;;;;1999.90;999.90;;;9.80;99.90;;;;;;5092193;28;20402;-64
2023/03/21 02:56:27;;;;;;;1999.90;999.90;;;9.80;99.90;;;;;;5091026;28;20425;-65
2023/03/21 02:58:53;;;;;;;1999.90;999.90;;;9.80;99.90;;;;;;5091923;28;20414;-65
2023/03/21 03:01:20;;;;;;;1999.90;999.90;;;9.70;99.90;;;;;;5092053;28;20429;-64
2023/03/21 03:03:47;;;;;;;1999.90;999.90;;;9.90;99.90;;;;;;5092590;28;20487;-69
2023/03/21 03:06:18;;;;;;;1999.90;999.90;;;9.90;99.90;;;;;;5091873;28;20410;-67
2023/03/21 03:09:03;;;;;;;1999.90;999.90;;;9.90;99.90;;;;;;5090905;28;20429;-67
2023/03/21 03:11:32;;;;;;;1999.90;999.90;;;9.90;99.90;;;;;;5091839;28;20418;-69
2023/03/21 03:14:11;;;;;;;1999.90;999.90;;;9.80;99.90;;;;;;5091833;28;20410;-67
2023/03/21 03:16:44;;;;;;;1999.90;999.90;;;9.80;99.90;;;;;;5091735;28;20409;-67
2023/03/21 03:19:21;;;;;;;1999.90;999.90;;;9.80;99.90;;;;;;5091737;28;20423;-67
2023/03/21 03:21:54;;;;;;;1999.90;999.90;;;9.80;99.90;;;;;;5089347;28;20513;-67
2023/03/21 03:24:26;;;;;;;1999.90;999.90;;;9.80;99.90;;;;;;5091692;28;20412;-68
2023/03/21 03:26:57;;;;;;;1999.90;999.90;;;9.90;99.90;;;;;;5091597;28;20406;-67
2023/03/21 03:29:26;;;;;;;1999.90;999.90;;;9.90;99.90;;;;;;5091507;28;20459;-67
2023/03/21 03:31:59;;;;;;;1999.90;999.90;;;10.00;99.90;;;;;;5089793;28;20438;-65
2023/03/21 03:34:31;;;;;;;1999.90;999.90;;;10.00;99.90;;;;;;5090237;28;20483;-67
2023/03/21 03:37:04;;;;;;;1999.90;999.90;;;9.90;99.90;;;;;;5091338;28;20488;-68
2023/03/21 03:39:37;;;;;;;1999.90;999.90;;;9.90;99.90;;;;;;5091350;28;20493;-68
2023/03/21 03:42:08;;;;;;;1999.90;999.90;;;9.90;99.90;;;;;;5090466;28;20462;-68
2023/03/21 03:44:36;;;;;;;1999.90;999.90;;;9.80;99.90;;;;;;5090628;28;20433;-67
2023/03/21 03:47:07;;;;;;;1999.90;999.90;;;9.80;99.90;;;;;;5091123;28;20414;-68
2023/03/21 03:49:37;;;;;;;1999.90;999.90;;;9.80;99.90;;;;;;5091295;28;20413;-69
2023/03/21 03:52:10;;;;;;;1999.90;999.90;;;9.80;99.90;;;;;;5091131;28;20414;-67
2023/03/21 03:54:41;;;;;;;1999.90;999.90;;;9.80;99.90;;;;;;5091028;28;20814;-67
2023/03/21 03:57:08;;;;;;;1999.90;999.90;;;9.80;99.90;;;;;;5083840;28;20773;-68
2023/03/21 03:59:36;;;;;;;1999.90;999.90;;;9.90;99.90;;;;;;5090832;28;20426;-68
2023/03/21 04:02:03;;;;;;;1999.90;999.90;;;9.80;99.90;;;;;;5090809;28;20418;-68
2023/03/21 04:04:30;;;;;;;1999.90;999.90;;;9.90;99.90;;;;;;5090989;28;20413;-68
2023/03/21 04:06:57;;;;;;;1999.90;999.90;;;9.80;99.90;;;;;;5090975;28;20455;-69
2023/03/21 04:09:25;;;;;;;1999.90;999.90;;;9.90;99.90;;;;;;5090661;28;20414;-68
2023/03/21 04:11:53;;;;;;;1999.90;999.90;;;10.00;99.90;;;;;;5090243;28;20426;-67
2023/03/21 04:14:19;;;;;;;1999.90;999.90;;;10.00;99.90;;;;;;5090627;28;20483;-68
2023/03/21 04:16:46;;;;;;;1999.90;999.90;;;10.00;99.90;;;;;;5090611;28;20830;-68
2023/03/21 04:19:14;;;;;;;1999.90;999.90;;;10.10;99.90;;;;;;5090755;28;20413;-68
2023/03/21 04:21:41;;;;;;;1999.90;999.90;;;10.00;99.90;;;;;;5089771;28;20437;-67
2023/03/21 04:24:08;;;;;;;1999.90;999.90;;;10.10;99.90;;;;;;5090331;28;20907;-68
2023/03/21 04:26:35;;;;;;;1999.90;999.90;;;10.10;99.90;;;;;;5090572;28;20409;-68
2023/03/21 04:29:04;;;;;;;1999.90;999.90;;;10.10;99.90;;;;;;5090777;28;20467;-68
2023/03/21 04:31:33;;;;;;;1999.90;999.90;;;10.10;99.90;;;;;;5089970;28;20406;-68
2023/03/21 04:34:02;;;;;;;1999.90;999.90;;;10.10;99.90;;;;;;5090205;28;20475;-68
2023/03/21 04:36:32;;;;;;;1999.90;999.90;;;10.10;99.90;;;;;;5090129;28;20517;-68
2023/03/21 04:39:00;;;;;;;1999.90;999.90;;;10.10;99.90;;;;;;5090368;28;20417;-67
2023/03/21 04:41:27;;;;;;;1999.90;999.90;;;10.10;99.90;;;;;;5090281;28;20428;-68
2023/03/21 04:43:54;;;;;;;1999.90;999.90;;;10.00;99.90;;;;;;5089377;28;20429;-68
2023/03/21 04:46:23;;;;;;;1999.90;999.90;;;10.10;99.90;;;;;;5090146;28;20410;-68
2023/03/21 04:48:49;;;;;;;1999.90;999.90;;;10.10;99.90;;;;;;5090063;28;20413;-67
2023/03/21 04:51:17;;;;;;;1999.90;999.90;;;10.10;99.90;;;;;;5090237;28;20525;-68
2023/03/21 04:53:45;;;;;;;1999.90;999.90;;;10.20;99.90;;;;;;5094304;28;20429;-68
2023/03/21 04:56:13;;;;;;;1999.90;999.90;;;10.10;99.90;;;;;;5093345;28;20436;-68
2023/03/21 04:58:40;;;;;;;1999.90;999.90;;;10.10;99.90;;;;;;5094199;28;20417;-68
2023/03/21 05:01:07;;;;;;;1999.90;999.90;;;10.10;99.90;;;;;;5094183;28;20410;-65
2023/03/21 05:03:38;;;;;;;1999.90;999.90;;;10.20;99.90;;;;;;5093940;28;20510;-68
2023/03/21 05:06:07;;;;;;;1999.90;999.90;;;10.20;99.90;;;;;;5094152;28;20449;-68
2023/03/21 05:08:34;;;;;;;1999.90;999.90;;;10.20;99.90;;;;;;5092483;28;20621;-67
2023/03/21 05:11:00;;;;;;;1999.90;999.90;;;10.10;99.90;;;;;;5093881;28;20410;-68
2023/03/21 05:13:27;;;;;;;1999.90;999.90;;;10.10;99.90;;;;;;5094030;28;20402;-68
2023/03/21 05:15:54;;;;;;;1999.90;999.90;;;10.20;99.90;;;;;;5093920;28;20425;-66
2023/03/21 05:18:23;;;;;;;1999.90;999.90;;;10.20;99.90;;;;;;5093769;28;20944;-66
2023/03/21 05:20:54;;;;;;;1999.90;999.90;;;10.30;99.90;;;;;;5092577;28;20418;-67
2023/03/21 05:23:20;;;;;;;1999.90;999.90;;;10.30;99.90;;;;;;5093784;28;20775;-67
2023/03/21 05:25:47;;;;;;;1999.90;999.90;;;10.20;99.90;;;;;;5093624;28;20410;-66
2023/03/21 05:28:17;;;;;;;1999.90;999.90;;;10.20;99.90;;;;;;5093665;28;20403;-68
2023/03/21 05:30:44;;;;;;;1999.90;999.90;;;10.20;99.90;;;;;;5093996;28;20412;-67
2023/03/21 05:33:11;;;;;;;1999.90;999.90;;;10.20;99.90;;;;;;5092737;28;20425;-67
2023/03/21 05:35:38;;;;;;;1999.90;999.90;;;10.10;99.90;;;;;;5093573;28;20479;-68
2023/03/21 05:38:06;;;;;;;1999.90;999.90;;;10.10;99.90;;;;;;5093415;28;20406;-67
2023/03/21 05:40:33;;;;;;;1999.90;999.90;;;10.00;99.90;;;;;;5093486;28;20417;-68
2023/03/21 05:43:00;;;;;;;1999.90;999.90;;;10.00;99.90;;;;;;5093311;28;20417;-68
2023/03/21 05:45:27;;;;;;;1999.90;999.90;;;10.10;99.90;;;;;;5092250;28;20426;-68
2023/03/21 05:47:53;;;;;;;1999.90;999.90;;;10.10;99.90;;;;;;5093369;28;20410;-68
2023/03/21 05:50:20;;;;;;;1999.90;999.90;;;10.10;99.90;;;;;;5093504;28;20479;-65
2023/03/21 05:52:46;;;;;;;1999.90;999.90;;;10.10;99.90;;;;;;5093270;28;20945;-68
2023/03/21 05:55:14;;;;;;;1999.90;999.90;;;10.10;99.90;;;;;;5092523;28;20466;-68
2023/03/21 05:57:41;;;;;;;1999.90;999.90;;;10.10;99.90;;;;;;5092687;28;20928;-68
2023/03/21 06:00:09;;;;;;;1999.90;999.90;;;9.90;99.90;;;;;;5093175;28;20406;-70
2023/03/21 06:02:36;;;;;;;1999.90;999.90;;;10.40;99.90;;;;;;5093095;28;20413;-70
2023/03/21 06:05:03;;;;;;;1999.90;999.90;;;10.50;99.90;;;;;;5092442;28;20513;-70
2023/03/21 06:07:29;;;;;;;1999.90;999.90;;;10.50;99.90;;;;;;5091973;28;20410;-70
2023/03/21 06:09:56;;;;;;;1999.90;999.90;;;10.50;99.90;;;;;;5092897;28;20452;-71
2023/03/21 06:12:24;;;;;;;1999.90;999.90;;;10.60;99.90;;;;;;5093070;28;20475;-70
2023/03/21 06:14:51;;;;;;;1999.90;999.90;;;10.60;99.90;;;;;;5093140;28;20475;-69
2023/03/21 06:17:17;;;;;;;1999.90;999.90;;;10.50;99.90;;;;;;5092739;28;20912;-70
2023/03/21 06:19:44;;;;;;;1999.90;999.90;;;10.60;99.90;;;;;;5091514;28;20450;-70
2023/03/21 06:22:11;;;;;;;1999.90;999.90;;;10.40;99.90;;;;;;5092569;28;20425;-71
2023/03/21 06:24:38;;;;;;;1999.90;999.90;;;10.40;99.90;;;;;;5092536;28;20461;-70
2023/03/21 06:27:04;;;;;;;1999.90;999.90;;;10.60;99.90;;;;;;5092522;28;20970;-70
2023/03/21 06:29:32;;;;;;;1999.90;999.90;;;10.60;99.90;;;;;;5092712;28;20954;-69
2023/03/21 06:31:59;;;;;;;1999.90;999.90;;;10.60;99.90;;;;;;5092370;28;20467;-70
2023/03/21 06:34:26;;;;;;;1999.90;999.90;;;10.70;99.90;;;;;;5092303;28;20422;-70
2023/03/21 06:36:53;;;;;;;1999.90;999.90;;;10.90;99.90;;;;;;5092221;28;20449;-69
2023/03/21 06:39:20;;;;;;;1999.90;999.90;;;11.00;99.90;;;;;;5092374;28;20884;-70
2023/03/21 06:41:46;;;;;;;1999.90;999.90;;;11.10;99.90;;;;;;5092715;28;20406;-70
2023/03/21 06:44:13;;;;;;;1999.90;999.90;;;11.10;99.90;;;;;;5091430;28;20471;-69
2023/03/21 06:46:41;;;;;;;1999.90;999.90;;;11.10;99.90;;;;;;5092285;28;20409;-69
2023/03/21 06:49:08;;;;;;;1999.90;999.90;;;11.20;99.90;;;;;;5092412;28;20513;-70
2023/03/21 06:51:34;;;;;;;1999.90;999.90;;;11.10;99.90;;;;;;5092390;28;20475;-71
2023/03/21 06:54:01;;;;;;;1999.90;999.90;;;11.00;99.90;;;;;;5092223;28;20426;-68
2023/03/21 06:56:28;;;;;;;1999.90;999.90;;;11.20;99.90;;;;;;5091369;28;20426;-70
2023/03/21 06:58:54;;;;;;;1999.90;999.90;;;11.30;99.90;;;;;;5092164;28;20467;-69
2023/03/21 07:01:21;;;;;;;1999.90;999.90;;;11.30;99.90;;;;;;5092034;28;20418;-69
2023/03/21 07:03:49;;;;;;;1999.90;999.90;;;11.30;99.90;;;;;;5092139;28;20409;-70
2023/03/21 07:06:15;;;;;;;1999.90;999.90;;;11.30;99.90;;;;;;5092031;28;20492;-70
2023/03/21 07:08:42;;;;;;;1999.90;999.90;;;11.40;99.90;;;;;;5090469;28;20464;-69
2023/03/21 07:11:09;;;;;;;1999.90;999.90;;;11.40;99.90;;;;;;5091881;28;20414;-70
2023/03/21 07:13:36;;;;;;;1999.90;999.90;;;11.50;99.90;;;;;;5091760;28;20432;-70
2023/03/21 07:16:03;;;;;;;1999.90;999.90;;;11.60;99.90;;;;;;5090650;28;20471;-69
2023/03/21 07:18:30;;;;;;;1999.90;999.90;;;11.70;99.90;;;;;;5091685;28;20884;-68
2023/03/21 07:20:58;;;;;;;1999.90;999.90;;;11.80;99.90;;;;;;5090241;28;20432;-69
2023/03/21 07:23:26;;;;;;;1999.90;999.90;;;11.80;99.90;;;;;;5091374;28;20961;-70
2023/03/21 07:25:53;;;;;;;1999.90;999.90;;;11.90;99.90;;;;;;5091622;28;20409;-70
2023/03/21 07:28:21;;;;;;;1999.90;999.90;;;12.30;99.90;;;;;;5091748;28;20810;-70
2023/03/21 07:30:53;;;;;;;1999.90;999.90;;;12.20;99.90;;;;;;5091613;28;20413;-69
2023/03/21 07:33:19;;;;;;;1999.90;999.90;;;12.00;99.90;;;;;;5089635;28;20425;-70
2023/03/21 07:35:46;;;;;;;1999.90;999.90;;;12.20;99.90;;;;;;5090982;28;20402;-68
2023/03/21 07:38:15;;;;;;;1999.90;999.90;;;12.40;99.90;;;;;;5091474;28;20463;-70
2023/03/21 07:40:42;;;;;;;1999.90;999.90;;;12.40;99.90;;;;;;5091494;28;20464;-70
2023/03/21 07:43:09;;;;;;;1999.90;999.90;;;12.60;99.90;;;;;;5091225;28;20491;-71
2023/03/21 07:45:35;;;;;;;1999.90;999.90;;;12.70;99.90;;;;;;5090280;28;20777;-70
2023/03/21 07:48:02;;;;;;;1999.90;999.90;;;12.60;99.90;;;;;;5090765;28;20815;-70
2023/03/21 07:50:29;;;;;;;1999.90;999.90;;;12.50;99.90;;;;;;5091501;28;20471;-70
2023/03/21 07:52:55;;;;;;;1999.90;999.90;;;12.70;99.90;;;;;;5091183;28;20497;-68
2023/03/21 07:55:24;;;;;;;1999.90;999.90;;;12.70;99.90;;;;;;5091100;28;20414;-68
2023/03/21 07:57:51;;;;;;;1999.90;999.90;;;12.60;99.90;;;;;;5090622;28;20426;-72
2023/03/21 08:00:21;;;;;;;1999.90;999.90;;;12.40;99.90;;;;;;5090988;28;20418;-70
2023/03/21 08:02:53;;;;;;;1999.90;999.90;;;12.50;99.90;;;;;;5090756;28;20483;-70
2023/03/21 08:05:20;;;;;;;1999.90;999.90;;;12.60;99.90;;;;;;5090965;28;20413;-70
2023/03/21 08:07:47;;;;;;;1999.90;999.90;;;12.40;99.90;;;;;;5089891;28;20480;-70
2023/03/21 08:10:13;;;;;;;1999.90;999.90;;;12.40;99.90;;;;;;5089797;28;20434;-70
2023/03/21 08:12:41;;;;;;;1999.90;999.90;;;12.30;99.90;;;;;;5090582;28;20421;-70
2023/03/21 08:15:09;;;;;;;1999.90;999.90;;;12.20;99.90;;;;;;5090090;28;20911;-70
2023/03/21 08:17:36;;;;;;;1999.90;999.90;;;12.30;99.90;;;;;;5090585;28;20455;-71
2023/03/21 08:20:06;;;;;;;1999.90;999.90;;;12.20;99.90;;;;;;5089689;28;20787;-70
2023/03/21 08:22:33;;;;;;;1999.90;999.90;;;12.20;99.90;;;;;;5089953;28;20421;-70
2023/03/21 08:25:00;;;;;;;1999.90;999.90;;;12.10;99.90;;;;;;5090517;28;20851;-70
2023/03/21 08:27:26;;;;;;;1999.90;999.90;;;12.10;99.90;;;;;;5090203;28;20402;-69
2023/03/21 08:29:54;;;;;;;1999.90;999.90;;;12.10;99.90;;;;;;5090453;28;20803;-70
2023/03/21 08:32:27;;;;;;;1999.90;999.90;;;12.10;99.90;;;;;;5089931;28;20426;-69
2023/03/21 08:34:53;;;;;;;1999.90;999.90;;;12.30;99.90;;;;;;5090398;28;20408;-69
2023/03/21 08:37:20;;;;;;;1999.90;999.90;;;12.30;99.90;;;;;;5090397;28;20421;-70
2023/03/21 08:39:47;;;;;;;1999.90;999.90;;;12.30;99.90;;;;;;5090542;28;20410;-70
2023/03/21 08:42:13;;;;;;;1999.90;999.90;;;12.30;99.90;;;;;;5090461;28;20405;-70
2023/03/21 08:44:40;;;;;;;1999.90;999.90;;;12.40;99.90;;;;;;5089320;28;20432;-70
2023/03/21 08:47:08;;;;;;;1999.90;999.90;;;12.60;99.90;;;;;;5090183;28;20418;-69
2023/03/21 08:49:35;;;;;;;1999.90;999.90;;;12.70;99.90;;;;;;5090448;28;20463;-69
2023/03/21 08:52:01;;;;;;;1999.90;999.90;;;12.50;99.90;;;;;;5090249;28;20416;-69
2023/03/21 08:54:28;;;;;;;1999.90;999.90;;;12.50;99.90;;;;;;5089380;28;20483;-69
2023/03/21 08:56:55;;;;;;;1999.90;999.90;;;12.40;99.90;;;;;;5090020;28;20634;-68
2023/03/21 08:59:22;;;;;;;1999.90;999.90;;;12.60;99.90;;;;;;5090503;28;20788;-69
2023/03/21 09:01:48;;;;;;;1999.90;999.90;;;12.60;99.90;;;;;;5089837;28;20908;-70
2023/03/21 09:04:17;;;;;;;1999.90;999.90;;;12.80;99.90;;;;;;5111560;22;20924;-66
2023/03/21 09:06:46;;;;;;;1999.90;999.90;;;13.00;99.90;;;;;;5087748;28;20425;-69
2023/03/21 09:09:13;;;;;;;1999.90;999.90;;;12.80;99.90;;;;;;5086277;28;20473;-71
2023/03/21 09:11:40;;;;;;;1999.90;999.90;;;12.60;99.90;;;;;;5084763;28;20473;-70
2023/03/21 09:14:06;;;;;;;1999.90;999.90;;;12.70;99.90;;;;;;5070454;28;20424;-67
2023/03/21 09:16:33;;;;;;;1999.90;999.90;;;12.70;99.90;;;;;;5082765;28;20452;-70
2023/03/21 09:19:02;;;;;;;1999.90;999.90;;;12.50;99.90;;;;;;5090521;28;20402;-67
2023/03/21 09:21:30;;;;;;;1999.90;999.90;;;12.40;99.90;;;;;;5090526;28;20420;-67
2023/03/21 09:23:58;;;;;;;1999.90;999.90;;;12.40;99.90;;;;;;5089011;28;20406;-65
2023/03/21 09:26:27;;;;;;;1999.90;999.90;;;12.30;99.90;;;;;;5075509;28;20831;-66
2023/03/21 09:28:54;;;;;;;1999.90;999.90;;;12.40;99.90;;;;;;5072334;28;20407;-66
2023/03/21 09:31:22;;;;;;;1999.90;999.90;;;12.50;99.90;;;;;;5084231;28;20755;-68
2023/03/21 09:33:48;;;;;;;1999.90;999.90;;;12.60;99.90;;;;;;5073822;28;20415;-70
2023/03/21 09:36:17;;;;;;;1999.90;999.90;;;12.80;99.90;;;;;;5099082;28;20834;-70
2023/03/21 09:38:47;;;;;;;1999.90;999.90;;;12.70;99.90;;;;;;5073370;28;20423;-70
2023/03/21 09:41:27;;;;;;;1999.90;999.90;;;13.00;99.90;;;;;;5073847;28;20415;-70
2023/03/21 09:44:07;;;;;;;1999.90;999.90;;;13.30;99.90;;;;;;5083730;28;20422;-68
2023/03/21 09:46:41;;;;;;;1999.90;999.90;;;13.50;99.90;;;;;;5080560;28;20410;-70
2023/03/21 09:49:14;;;;;;;1999.90;999.90;;;13.80;99.90;;;;;;5093933;28;20887;-68
2023/03/21 09:51:44;;;;;;;1999.90;999.90;;;13.80;99.90;;;;;;5093970;28;20405;-69
2023/03/21 09:54:19;;;;;;;1999.90;999.90;;;13.30;99.90;;;;;;5093140;28;20406;-70
2023/03/21 09:56:46;;;;;;;1999.90;999.90;;;13.80;99.90;;;;;;5093794;28;20418;-67
2023/03/21 09:59:22;;;;;;;1999.90;999.90;;;14.20;99.90;;;;;;5102386;28;20883;-70
2023/03/21 10:01:49;;;;;;;1999.90;999.90;;;14.20;99.90;;;;;;5108900;28;20421;-68
2023/03/21 10:04:17;;;;;;;1999.90;999.90;;;14.00;99.90;;;;;;5106662;28;20418;-72
2023/03/21 10:06:49;;;;;;;1999.90;999.90;;;13.80;99.90;;;;;;5106186;28;20413;-70
2023/03/21 10:09:22;;;;;;;1999.90;999.90;;;13.80;99.90;;;;;;5086903;28;20483;-71
2023/03/21 10:11:53;;;;;;;1999.90;999.90;;;13.90;99.90;;;;;;5083959;28;20518;-71
2023/03/21 10:14:24;;;;;;;1999.90;999.90;;;14.20;99.90;;;;;;5092453;28;20417;-67
2023/03/21 10:16:55;;;;;;;1999.90;999.90;;;14.10;99.90;;;;;;5093310;28;20476;-70
2023/03/21 10:19:22;;;;;;;1999.90;999.90;;;13.80;99.90;;;;;;5093638;28;20414;-70
2023/03/21 10:21:51;;;;;;;1999.90;999.90;;;14.00;99.90;;;;;;5083844;28;20481;-70
2023/03/21 10:24:21;;;;;;;1999.90;999.90;;;14.20;99.90;;;;;;5091336;28;20414;-71
2023/03/21 10:26:50;;;;;;;1999.90;999.90;;;14.00;99.90;;;;;;5093017;28;20410;-70
2023/03/21 10:29:21;;;;;;;1999.90;999.90;;;14.10;99.90;;;;;;5092884;28;20459;-70
2023/03/21 10:31:48;;;;;;;1999.90;999.90;;;14.50;99.90;;;;;;5083821;28;20432;-72
2023/03/21 10:34:18;;;;;;;1999.90;999.90;;;14.90;99.90;;;;;;5092858;28;20410;-67
2023/03/21 10:36:46;;;;;;;1999.90;999.90;;;14.40;99.90;;;;;;5092812;28;20460;-69
2023/03/21 10:39:24;;;;;;;1999.90;999.90;;;14.60;99.90;;;;;;5092909;28;20467;-70
2023/03/21 10:41:51;;;;;;;1999.90;999.90;;;14.70;99.90;;;;;;5091969;28;20425;-70
2023/03/21 10:44:18;;;;;;;1999.90;999.90;;;15.00;99.90;;;;;;5074508;28;20812;-70
2023/03/21 10:46:53;;;;;;;1999.90;999.90;;;15.20;99.90;;;;;;5072159;28;20763;-68
2023/03/21 10:49:21;;;;;;;1999.90;999.90;;;15.00;99.90;;;;;;5072119;28;20912;-68
2023/03/21 10:51:51;;;;;;;1999.90;999.90;;;14.80;99.90;;;;;;5088492;28;20447;-69
2023/03/21 10:54:20;;;;;;;1999.90;999.90;;;14.70;99.90;;;;;;5073809;28;20419;-69
2023/03/21 10:56:56;;;;;;;1999.90;999.90;;;14.70;99.90;;;;;;5072315;28;20499;-73
2023/03/21 10:59:25;;;;;;;1999.90;999.90;;;14.90;99.90;;;;;;5072491;28;20483;-69
2023/03/21 11:01:55;;;;;;;1999.90;999.90;;;14.90;99.90;;;;;;5088391;28;20479;-70
2023/03/21 11:04:25;;;;;;;1999.90;999.90;;;14.80;99.90;;;;;;5073276;28;20467;-70
2023/03/21 11:06:54;;;;;;;1999.90;999.90;;;14.90;99.90;;;;;;5072083;28;20464;-70
2023/03/21 11:09:23;;;;;;;1999.90;999.90;;;15.10;99.90;;;;;;5072315;28;20533;-70
2023/03/21 11:11:53;;;;;;;1999.90;999.90;;;15.10;99.90;;;;;;5079379;28;20434;-71
2023/03/21 11:14:33;;;;;;;1999.90;999.90;;;15.70;99.90;;;;;;5091859;28;20410;-73
2023/03/21 11:16:59;;;;;;;1999.90;999.90;;;15.30;99.90;;;;;;5092006;28;20453;-70
2023/03/21 11:19:30;;;;;;;1999.90;999.90;;;15.30;99.90;;;;;;5091958;28;20414;-70
2023/03/21 11:21:57;;;;;;;1999.90;999.90;;;15.40;99.90;;;;;;5091339;28;20437;-71
2023/03/21 11:24:29;;;;;;;1999.90;999.90;;;15.40;99.90;;;;;;5072890;28;20784;-70
2023/03/21 11:26:57;;;;;;;1999.90;999.90;;;15.60;99.90;;;;;;5071536;28;20424;-70
2023/03/21 11:29:29;;;;;;;1999.90;999.90;;;15.80;99.90;;;;;;5071487;28;20408;-69
2023/03/21 11:32:00;;;;;;;1999.90;999.90;;;15.60;99.90;;;;;;5087843;28;20433;-70
2023/03/21 11:34:32;;;;;;;1999.90;999.90;;;15.40;99.90;;;;;;5072284;28;20423;-69
2023/03/21 11:37:01;;;;;;;1999.90;999.90;;;15.60;99.90;;;;;;5071258;28;20412;-67
2023/03/21 11:39:32;;;;;;;1999.90;999.90;;;15.60;99.90;;;;;;5071290;28;20426;-70
2023/03/21 11:42:00;;;;;;;1999.90;999.90;;;15.60;99.90;;;;;;5087785;28;21020;-68
2023/03/21 11:44:30;;;;;;;1999.90;999.90;;;15.50;99.90;;;;;;5072216;28;20427;-68
2023/03/21 11:46:57;;;;;;;1999.90;999.90;;;15.50;99.90;;;;;;5070919;28;20990;-69
2023/03/21 11:49:25;;;;;;;1999.90;999.90;;;15.40;99.90;;;;;;5071257;28;20419;-67
2023/03/21 11:52:14;;;;;;;1999.90;999.90;;;15.30;99.90;;;;;;5086844;28;20429;-67
2023/03/21 11:54:57;;;;;;;1999.90;999.90;;;15.20;99.90;;;;;;5070991;28;20426;-68
2023/03/21 11:57:33;;;;;;;1999.90;999.90;;;15.10;99.90;;;;;;5071282;28;20423;-67
2023/03/21 12:00:09;;;;;;;1999.90;999.90;;;15.20;99.90;;;;;;5071058;28;20457;-68
2023/03/21 12:03:03;;;;;;;1999.90;999.90;;;15.20;99.90;;;;;;5086213;28;20941;-68
2023/03/21 12:05:33;;;;;;;1999.90;999.90;;;15.30;99.90;;;;;;5082632;28;20459;-69
2023/03/21 12:08:06;;;;;;;1999.90;999.90;;;15.30;99.90;;;;;;5091158;28;20414;-69
2023/03/21 12:10:42;;;;;;;1999.90;999.90;;;15.30;99.90;;;;;;5090181;28;20430;-69
2023/03/21 12:13:31;;;;;;;1999.90;999.90;;;15.50;99.90;;;;;;5082841;28;20419;-71